Time;durP1;ratioP1;P1;durP2;ratioP2;P2;SDS_P1;SDS_P2;PMS_P1;PMS_P2;Temp;Humidity;BMP_temperature;BMP_pressure;BME280_temperature;BME280_humidity;BME280_pressure;Samples;Min_cycle;Max_cycle;Signal;HPM_P1;HPM_P2
2022/06/01 00:02:36;;;;;;;7.07;5.07;;;;;;;18.32;77.10;99417.78;5081690;27;1381299;-92
2022/06/01 00:05:02;;;;;;;12.02;5.25;;;;;;;18.25;77.66;99409.28;5059009;28;20027;-93
2022/06/01 00:07:27;;;;;;;9.75;5.47;;;;;;;18.15;77.90;99402.19;5059172;28;20445;-93
2022/06/01 00:09:54;;;;;;;5.40;4.88;;;;;;;18.17;78.11;99410.84;5059141;28;20027;-93
2022/06/01 00:12:20;;;;;;;8.20;4.82;;;;;;;18.20;78.54;99412.97;5060162;28;20082;-95
2022/06/01 00:14:46;;;;;;;4.75;4.05;;;;;;;18.13;77.64;99396.25;5059398;28;20024;-94
2022/06/01 00:17:11;;;;;;;12.35;4.07;;;;;;;18.30;77.30;99398.22;5059041;28;20566;-93
2022/06/01 00:19:37;;;;;;;7.00;3.97;;;;;;;18.38;76.40;99389.22;5059736;28;20016;-93
2022/06/01 00:22:12;;;;;;;4.38;3.97;;;;;;;18.37;75.89;99384.91;5059003;28;20375;-93
2022/06/01 00:24:41;;;;;;;6.55;4.40;;;;;;;18.37;76.50;99395.81;5061949;28;20030;-95
2022/06/01 00:27:06;;;;;;;8.85;4.20;;;;;;;18.38;76.48;99381.06;5059494;28;20027;-94
2022/06/01 00:29:32;;;;;;;5.20;4.30;;;;;;;18.48;76.17;99380.75;5058699;28;20026;-93
2022/06/01 00:31:57;;;;;;;4.93;3.97;;;;;;;18.31;76.68;99378.03;5058600;28;20422;-93
2022/06/01 00:34:23;;;;;;;8.32;4.38;;;;;;;18.27;77.78;99379.78;5059467;28;20055;-95
2022/06/01 00:36:48;;;;;;;5.90;4.78;;;;;;;18.19;78.25;99373.19;5058752;28;20027;-94
2022/06/01 00:39:14;;;;;;;8.93;4.95;;;;;;;18.15;77.80;99374.94;5058731;28;20019;-94
2022/06/01 00:41:39;;;;;;;7.35;4.30;;;;;;;18.21;77.35;99372.88;5058515;28;20489;-94
2022/06/01 00:44:05;;;;;;;7.75;4.10;;;;;;;18.17;78.24;99369.97;5058800;28;20043;-94
2022/06/01 00:46:30;;;;;;;11.52;4.30;;;;;;;18.14;77.63;99363.25;5058292;28;20019;-94
2022/06/01 00:48:58;;;;;;;5.20;3.83;;;;;;;18.31;76.85;99378.81;5058354;28;20055;-93
2022/06/01 00:51:25;;;;;;;9.15;4.20;;;;;;;18.23;77.10;99365.19;5058643;28;20012;-94
2022/06/01 00:53:51;;;;;;;5.45;3.72;;;;;;;18.19;76.81;99375.91;5058378;28;20024;-93
2022/06/01 00:56:19;;;;;;;6.82;3.83;;;;;;;18.21;77.29;99367.44;5058117;28;20030;-94
2022/06/01 00:58:45;;;;;;;9.45;4.13;;;;;;;18.21;76.89;99375.59;5058473;28;20028;-94
2022/06/01 01:01:13;;;;;;;5.97;4.57;;;;;;;18.00;78.07;99353.63;5057849;28;20044;-94
2022/06/01 01:03:40;;;;;;;6.10;4.07;;;;;;;17.96;77.65;99359.69;5058371;28;20016;-94
2022/06/01 01:06:29;;;;;;;6.72;4.60;;;;;;;18.01;77.33;99355.22;5058049;28;20054;-94
2022/06/01 01:08:55;;;;;;;4.90;3.70;;;;;;;18.06;78.13;99368.69;5060220;28;20463;-94
2022/06/01 01:11:26;;;;;;;7.32;3.90;;;;;;;18.07;78.38;99367.56;5057942;28;20078;-94
2022/06/01 01:13:51;;;;;;;6.78;4.22;;;;;;;18.07;77.80;99370.28;5062523;28;20020;-93
2022/06/01 01:16:17;;;;;;;8.07;4.22;;;;;;;18.06;77.53;99371.41;5044492;28;20031;-94
2022/06/01 01:18:43;;;;;;;5.22;3.75;;;;;;;18.10;77.85;99373.19;5045100;28;20027;-93
2022/06/01 01:21:26;;;;;;;6.65;4.20;;;;;;;18.19;77.39;99378.66;5044502;28;20048;-94
2022/06/01 01:24:13;;;;;;;5.22;4.07;;;;;;;18.29;76.71;99372.88;5078412;28;20031;-94
2022/06/01 01:26:38;;;;;;;7.00;4.00;;;;;;;18.18;77.13;99366.94;5077910;28;20024;-94
2022/06/01 01:29:09;;;;;;;6.22;4.10;;;;;;;18.13;77.43;99367.09;5044126;28;20035;-94
2022/06/01 01:31:34;;;;;;;10.50;4.38;;;;;;;18.14;77.50;99365.97;5044767;28;20027;-94
2022/06/01 01:34:00;;;;;;;8.85;4.72;;;;;;;18.04;77.63;99355.38;5044278;28;20107;-94
2022/06/01 01:36:28;;;;;;;4.88;4.28;;;;;;;18.05;77.74;99356.19;5060986;28;20028;-94
2022/06/01 01:39:07;;;;;;;7.55;3.97;;;;;;;18.05;77.36;99362.44;5045064;28;20012;-94
2022/06/01 01:41:41;;;;;;;6.60;3.85;;;;;;;18.09;77.54;99368.03;5045401;28;20101;-94
2022/06/01 01:44:37;;;;;;;4.55;3.50;;;;;;;18.14;77.65;99374.16;5044257;28;20027;-93
2022/06/01 01:47:03;;;;;;;6.20;3.25;;;;;;;18.08;77.02;99369.19;5046931;28;20467;-94
2022/06/01 01:49:33;;;;;;;10.88;3.58;;;;;;;18.14;77.11;99376.88;5044083;28;20016;-94
2022/06/01 01:52:02;;;;;;;7.43;4.43;;;;;;;18.07;77.49;99383.91;5044742;28;20035;-94
2022/06/01 01:54:47;;;;;;;7.45;3.67;;;;;;;18.05;77.93;99386.16;5044480;28;20028;-94
2022/06/01 01:57:25;;;;;;;9.43;3.75;;;;;;;17.99;78.22;99380.03;5077931;28;20035;-94
2022/06/01 01:59:51;;;;;;;6.57;3.35;;;;;;;18.07;77.02;99381.19;5044887;28;20020;-94
2022/06/01 02:02:21;;;;;;;7.32;3.75;;;;;;;17.94;77.07;99372.03;5073566;28;20498;-94
2022/06/01 02:07:40;;;;;;;8.63;3.30;;;;;;;17.82;77.49;99377.25;5045945;28;20032;-95
2022/06/01 02:12:50;;;;;;;6.50;3.60;;;;;;;17.86;77.86;99400.06;5045560;28;20575;-94
2022/06/01 02:15:22;;;;;;;8.77;3.70;;;;;;;17.80;78.35;99380.28;5023774;28;20107;-94
2022/06/01 02:17:52;;;;;;;7.22;3.90;;;;;;;17.71;78.36;99382.19;5024083;28;20020;-93
2022/06/01 02:20:32;;;;;;;11.95;4.22;;;;;;;17.78;78.62;99396.16;5023524;28;20031;-93
2022/06/01 02:23:25;;;;;;;8.40;3.83;;;;;;;17.82;78.17;99408.00;5040748;28;20085;-95
2022/06/01 02:25:53;;;;;;;7.97;4.50;;;;;;;17.64;78.47;99395.44;5039495;28;20024;-93
2022/06/01 02:28:18;;;;;;;7.85;3.80;;;;;;;17.68;78.36;99404.59;5024083;28;20402;-93
2022/06/01 02:30:44;;;;;;;12.20;3.90;;;;;;;17.63;78.04;99402.81;5024197;28;20028;-93
2022/06/01 02:33:13;;;;;;;6.38;4.30;;;;;;;17.56;78.02;99397.03;5023531;28;20482;-93
2022/06/01 02:35:41;;;;;;;15.30;4.45;;;;;;;17.51;78.75;99405.34;5023688;28;20056;-93
2022/06/01 02:38:10;;;;;;;6.90;4.28;;;;;;;17.55;78.87;99425.38;5024059;28;20089;-92
2022/06/01 02:40:36;;;;;;;9.30;4.93;;;;;;;17.44;79.21;99413.97;5023628;28;20056;-95
2022/06/01 02:43:01;;;;;;;7.28;5.00;;;;;;;17.42;78.73;99402.59;5023323;28;20043;-94
2022/06/01 02:45:26;;;;;;;10.85;4.68;;;;;;;17.38;78.82;99399.69;5023022;28;20086;-93
2022/06/01 02:47:54;;;;;;;6.60;4.95;;;;;;;17.36;79.11;99399.19;5022998;28;20027;-95
2022/06/01 02:50:24;;;;;;;11.73;4.75;;;;;;;17.48;79.03;99414.94;5023090;28;20085;-94
2022/06/01 02:52:50;;;;;;;10.00;4.75;;;;;;;17.39;79.14;99411.38;5023645;28;20123;-94
2022/06/01 02:55:16;;;;;;;5.85;4.38;;;;;;;17.47;78.89;99415.25;5022488;28;20055;-95
2022/06/01 02:57:42;;;;;;;8.40;5.18;;;;;;;17.35;79.11;99397.59;5022916;28;20130;-94
2022/06/01 03:00:10;;;;;;;14.98;5.13;;;;;;;17.35;79.37;99407.69;5022698;28;20027;-94
2022/06/01 03:02:39;;;;;;;6.22;4.70;;;;;;;17.39;78.71;99408.66;5022864;28;20181;-93
2022/06/01 03:05:05;;;;;;;9.35;4.38;;;;;;;17.38;78.21;99398.88;5023207;28;20021;-94
2022/06/01 03:07:32;;;;;;;8.77;4.35;;;;;;;17.49;78.33;99413.84;5023125;28;20518;-93
2022/06/01 03:09:57;;;;;;;5.68;4.20;;;;;;;17.33;79.00;99399.03;5023241;28;20028;-92
2022/06/01 03:12:23;;;;;;;11.90;4.18;;;;;;;17.29;78.63;99403.50;5038829;28;20020;-93
2022/06/01 03:14:48;;;;;;;9.80;3.90;;;;;;;17.26;79.09;99404.09;5022373;28;20032;-93
2022/06/01 03:17:14;;;;;;;10.80;4.18;;;;;;;17.34;78.84;99422.41;5022730;28;20032;-93
2022/06/01 03:19:39;;;;;;;5.70;4.10;;;;;;;17.19;78.77;99401.03;5022234;28;20032;-92
2022/06/01 03:22:04;;;;;;;9.05;4.00;;;;;;;17.32;78.26;99421.91;5022255;28;20090;-93
2022/06/01 03:24:30;;;;;;;6.85;4.50;;;;;;;17.26;79.25;99413.06;5022576;28;20025;-93
2022/06/01 03:26:56;;;;;;;8.65;5.35;;;;;;;17.22;78.83;99411.28;5022206;28;20085;-94
2022/06/01 03:29:23;;;;;;;8.57;4.65;;;;;;;17.20;79.53;99408.88;5022812;28;20051;-92
2022/06/01 03:31:51;;;;;;;10.60;4.68;;;;;;;17.26;79.00;99417.69;5022669;28;20031;-93
2022/06/01 03:34:17;;;;;;;12.15;5.78;;;;;;;17.29;78.85;99431.50;5022668;28;20115;-92
2022/06/01 03:36:43;;;;;;;10.23;6.68;;;;;;;17.25;79.19;99425.06;5022206;28;20405;-93
2022/06/01 03:39:08;;;;;;;14.70;7.47;;;;;;;17.22;79.91;99427.59;5038664;28;20274;-91
2022/06/01 03:41:34;;;;;;;11.35;6.32;;;;;;;17.28;79.78;99434.53;5021718;28;20115;-92
2022/06/01 03:46:44;;;;;;;14.95;6.25;;;;;;;17.36;79.51;99425.59;5043619;28;20036;-94
2022/06/01 03:49:09;;;;;;;19.40;8.07;;;;;;;17.17;80.06;99426.63;5038351;28;20047;-93
2022/06/01 03:51:36;;;;;;;16.85;7.95;;;;;;;17.00;79.93;99425.72;5022195;28;20021;-94
2022/06/01 03:54:02;;;;;;;15.10;7.57;;;;;;;16.92;80.67;99422.63;5022147;28;20405;-93
2022/06/01 03:56:27;;;;;;;19.67;8.63;;;;;;;17.03;81.01;99436.78;5038245;28;20028;-92
2022/06/01 03:58:52;;;;;;;18.52;8.38;;;;;;;17.04;80.52;99448.47;5021904;28;20092;-93
2022/06/01 04:01:18;;;;;;;13.05;7.75;;;;;;;17.06;80.97;99441.59;5021899;28;20048;-92
2022/06/01 04:03:44;;;;;;;15.80;10.27;;;;;;;16.94;81.21;99433.19;5038581;28;20028;-92
2022/06/01 04:06:10;;;;;;;20.58;11.48;;;;;;;17.05;80.86;99431.81;5022297;28;20037;-92
2022/06/01 04:08:35;;;;;;;23.73;14.55;;;;;;;17.21;81.11;99445.06;5021692;28;20035;-92
2022/06/01 04:11:01;;;;;;;27.02;14.05;;;;;;;17.20;80.56;99425.19;5039015;28;20025;-92
2022/06/01 04:13:26;;;;;;;24.27;14.65;;;;;;;17.30;79.98;99449.41;5037956;28;20387;-91
2022/06/01 04:15:52;;;;;;;27.23;16.00;;;;;;;17.32;79.60;99435.50;5021372;28;20073;-93
2022/06/01 04:18:18;;;;;;;28.15;16.58;;;;;;;17.38;79.29;99440.50;5038343;28;20021;-93
2022/06/01 04:20:43;;;;;;;36.45;20.55;;;;;;;17.49;79.19;99451.13;5021229;28;20024;-93
2022/06/01 04:23:09;;;;;;;29.90;14.23;;;;;;;17.39;78.83;99452.22;5038395;28;20024;-92
2022/06/01 04:25:34;;;;;;;31.23;15.23;;;;;;;17.33;79.57;99437.94;5021632;28;20032;-93
2022/06/01 04:28:00;;;;;;;25.70;13.20;;;;;;;17.44;79.72;99448.56;5038856;28;20032;-93
2022/06/01 04:30:25;;;;;;;33.35;10.38;;;;;;;17.44;79.08;99443.91;5037989;28;20399;-93
2022/06/01 04:32:52;;;;;;;12.45;7.03;;;;;;;17.51;78.78;99448.91;5038807;28;20029;-92
2022/06/01 04:35:17;;;;;;;15.60;6.95;;;;;;;17.45;79.40;99442.81;5021709;28;20024;-93
2022/06/01 04:37:43;;;;;;;14.27;6.63;;;;;;;17.50;78.85;99444.59;5021324;28;20032;-93
2022/06/01 04:40:10;;;;;;;12.27;7.22;;;;;;;17.54;78.53;99443.63;5022386;28;20092;-93
2022/06/01 04:42:35;;;;;;;9.98;7.47;;;;;;;17.64;77.97;99452.63;5022340;28;20097;-93
2022/06/01 04:45:01;;;;;;;20.83;9.80;;;;;;;17.82;77.48;99469.88;5021830;28;20054;-91
2022/06/01 04:47:26;;;;;;;15.55;6.85;;;;;;;17.97;76.40;99461.28;5022067;28;20040;-91
2022/06/01 04:49:51;;;;;;;18.33;7.43;;;;;;;18.17;76.55;99454.47;5025905;28;20482;-94
2022/06/01 04:52:17;;;;;;;16.23;7.45;;;;;;;18.01;76.57;99443.19;5025411;28;20075;-92
2022/06/01 04:54:46;;;;;;;19.90;7.15;;;;;;;18.11;76.55;99450.28;5026319;28;20024;-94
2022/06/01 04:57:11;;;;;;;29.38;7.35;;;;;;;18.30;76.19;99471.81;5026994;28;20036;-93
2022/06/01 04:59:37;;;;;;;31.70;6.97;;;;;;;18.26;75.64;99454.47;5027080;28;20039;-93
2022/06/01 05:02:06;;;;;;;15.38;7.05;;;;;;;18.40;74.97;99457.88;5043277;28;20059;-94
2022/06/01 05:04:31;;;;;;;15.95;6.57;;;;;;;18.44;73.73;99463.50;5028589;28;20020;-94
2022/06/01 05:07:00;;;;;;;22.90;7.07;;;;;;;18.51;74.48;99458.38;5027295;28;20035;-96
2022/06/01 05:09:32;;;;;;;22.33;9.15;;;;;;;18.69;74.21;99479.06;5045931;28;20113;-96
2022/06/01 05:17:11;;;;;;;22.33;8.93;;;;;;;18.81;73.39;99455.88;5087195;22;20069;-93
2022/06/01 05:19:39;;;;;;;21.83;9.23;;;;;;;18.98;73.50;99461.31;4998930;28;20589;-92
2022/06/01 05:22:05;;;;;;;14.95;8.15;;;;;;;19.10;72.62;99464.19;5021851;28;20067;-92
2022/06/01 05:24:30;;;;;;;14.52;7.45;;;;;;;19.12;71.97;99456.47;5041411;28;20029;-92
2022/06/01 05:26:56;;;;;;;19.38;8.05;;;;;;;19.32;71.73;99478.75;5028275;28;20021;-94
2022/06/01 05:29:22;;;;;;;29.05;8.50;;;;;;;19.44;71.50;99480.81;5007159;28;20028;-95
2022/06/01 05:31:48;;;;;;;13.98;9.98;;;;;;;19.44;71.06;99465.22;5006841;28;20529;-94
2022/06/01 05:34:14;;;;;;;29.55;17.25;;;;;;;19.55;70.62;99466.50;5136398;23;20194;-93
2022/06/01 05:36:39;;;;;;;24.05;9.40;;;;;;;19.75;71.01;99484.13;4986396;28;20033;-92
2022/06/01 05:39:09;;;;;;;13.52;9.15;;;;;;;19.69;70.14;99465.47;4982305;28;20480;-93
2022/06/01 05:41:35;;;;;;;21.40;10.15;;;;;;;19.77;69.05;99457.28;4983587;28;20033;-93
2022/06/01 05:44:06;;;;;;;21.40;11.77;;;;;;;19.78;68.90;99460.84;4992998;28;20022;-94
2022/06/01 05:46:41;;;;;;;29.85;20.20;;;;;;;19.84;68.08;99454.06;4997580;28;20033;-95
2022/06/01 05:49:19;;;;;;;19.98;10.20;;;;;;;19.95;67.54;99457.22;4999479;28;20491;-96
2022/06/01 05:51:50;;;;;;;22.67;10.70;;;;;;;20.12;66.90;99478.19;5031739;28;20029;-96
2022/06/01 05:59:29;;;;;;;16.45;9.45;;;;;;;20.19;66.65;99460.16;5170476;22;20059;-95
2022/06/01 06:01:56;;;;;;;18.25;9.55;;;;;;;20.20;65.74;99450.00;5041722;28;20020;-94
2022/06/01 06:04:22;;;;;;;18.83;8.32;;;;;;;20.26;65.51;99453.34;5053065;28;20044;-95
2022/06/01 06:07:06;;;;;;;22.25;10.32;;;;;;;20.39;66.46;99464.03;5140690;22;20045;-94
2022/06/01 06:09:31;;;;;;;18.48;8.73;;;;;;;20.45;64.36;99456.44;5118404;22;20060;-94
2022/06/01 06:11:57;;;;;;;15.57;9.25;;;;;;;20.59;65.00;99456.22;5039570;28;20044;-95
2022/06/01 06:14:23;;;;;;;14.82;7.97;;;;;;;20.67;64.39;99462.75;5042150;28;20032;-94
2022/06/01 06:16:49;;;;;;;34.45;17.95;;;;;;;20.79;63.10;99469.09;5023608;28;20808;-90
2022/06/01 06:19:20;;;;;;;20.58;11.38;;;;;;;20.99;62.87;99478.41;5048185;28;20025;-91
2022/06/01 06:21:47;;;;;;;13.48;6.15;;;;;;;21.04;62.82;99474.66;5031986;28;20033;-90
2022/06/01 06:24:14;;;;;;;11.48;6.40;;;;;;;21.12;62.20;99465.56;5021484;28;20024;-87
2022/06/01 06:26:46;;;;;;;17.15;7.85;;;;;;;21.23;62.36;99460.50;5014818;28;20119;-92
2022/06/01 06:29:12;;;;;;;;;;;;;;;21.48;57.14;99472.34;5015644;28;20024;-93
2022/06/01 06:31:45;;;;;;;6.35;2.67;;;;;;;21.46;55.69;99449.16;5049974;28;19908;-91
2022/06/01 06:34:13;;;;;;;6.32;3.20;;;;;;;21.54;54.55;99450.97;5058024;28;20115;-93
2022/06/01 06:36:46;;;;;;;15.98;9.57;;;;;;;21.57;54.96;99436.63;5022614;28;20649;-91
2022/06/01 06:39:12;;;;;;;14.38;4.93;;;;;;;21.62;59.38;99460.25;5013830;28;20029;-91
2022/06/01 06:42:31;;;;;;;11.57;4.85;;;;;;;21.53;60.41;99446.66;5025813;28;20037;-91
2022/06/01 06:45:11;;;;;;;14.23;6.13;;;;;;;21.85;59.82;99461.44;5011135;28;20116;-95
2022/06/01 06:48:04;;;;;;;;;;;;;;;;;;;;;
2022/06/01 06:54:12;;;;;;;8.07;2.60;;;;;;;22.26;54.75;99465.09;4990314;28;20045;-94
2022/06/01 06:57:32;;;;;;;7.68;3.97;;;;;;;22.42;56.89;99478.91;4949205;28;20112;-94
2022/06/01 07:07:10;;;;;;;;;;;;;;;;;;;;;
2022/06/01 07:09:55;;;;;;;13.32;6.38;;;;;;;22.78;54.95;99460.75;5022347;28;20089;-95
2022/06/01 07:15:15;;;;;;;19.73;14.05;;;;;;;23.07;54.20;99464.34;5048433;28;20032;-93
2022/06/01 07:17:45;;;;;;;10.35;6.30;;;;;;;23.09;53.39;99449.09;5029111;28;20032;-93
2022/06/01 07:20:25;;;;;;;85.05;65.43;;;;;;;23.28;51.38;99447.66;5034005;28;20029;-96
2022/06/01 07:23:30;;;;;;;;;;;;;;;;;;;;;
2022/06/01 07:26:09;;;;;;;;;;;;;;;;;;;;;
2022/06/01 07:32:09;;;;;;;26.83;5.90;;;;;;;23.71;50.43;99457.00;4965335;28;20102;-95
2022/06/01 07:34:43;;;;;;;13.93;2.78;;;;;;;23.76;48.53;99449.31;4962693;28;20045;-96
2022/06/01 07:45:38;;;;;;;5.22;2.30;;;;;;;24.14;48.64;99466.31;5035541;28;20490;-96
2022/06/01 07:48:10;;;;;;;8.95;3.42;;;;;;;24.11;49.44;99450.53;5027115;28;20021;-94
2022/06/01 07:50:42;;;;;;;9.90;3.03;;;;;;;24.01;49.31;99435.38;5007979;28;20041;-94
2022/06/01 07:53:18;;;;;;;4.93;3.10;;;;;;;24.15;49.82;99434.88;5010557;28;20052;-95
2022/06/01 07:59:01;;;;;;;6.55;3.15;;;;;;;24.39;50.06;99431.91;5027564;28;20036;-90
2022/06/01 08:01:27;;;;;;;6.28;3.28;;;;;;;24.47;50.94;99435.63;5050570;28;20103;-89
2022/06/01 08:04:08;;;;;;;7.28;3.33;;;;;;;24.54;49.99;99433.03;5029711;28;20090;-91
2022/06/01 08:06:34;;;;;;;7.70;2.85;;;;;;;24.35;50.17;99433.78;5064235;28;20450;-94
2022/06/01 08:08:59;;;;;;;5.82;2.70;;;;;;;24.48;49.36;99434.44;5062027;28;20028;-95
2022/06/01 08:13:06;;;;;;;8.68;3.03;;;;;;;24.59;49.83;99448.47;5043633;28;20543;-94
2022/06/01 08:14:12;;;;;;;4.40;3.40;;;;;;;24.46;50.04;99439.50;5042267;28;20085;-95
2022/06/01 08:16:40;;;;;;;5.38;3.30;;;;;;;24.60;50.07;99448.09;5004593;28;20016;-96
2022/06/01 08:19:08;;;;;;;18.23;7.47;;;;;;;24.60;52.14;99431.59;5024350;28;20013;-94
2022/06/01 08:21:36;;;;;;;23.85;15.38;;;;;;;24.75;52.59;99429.13;5004053;28;20088;-93
2022/06/01 08:24:11;;;;;;;75.65;62.30;;;;;;;24.73;52.47;99423.97;5018324;28;20198;-94
2022/06/01 08:26:36;;;;;;;14.65;6.47;;;;;;;24.88;51.89;99418.75;5025667;28;20021;-92
2022/06/01 08:29:17;;;;;;;8.60;4.45;;;;;;;25.09;51.68;99434.91;5025333;28;20028;-95
2022/06/01 08:35:05;;;;;;;12.02;5.25;;;;;;;25.30;51.36;99416.06;5044250;28;20618;-94
2022/06/01 08:37:33;;;;;;;13.93;5.35;;;;;;;25.44;51.04;99428.47;5017082;28;20048;-94
2022/06/01 08:40:13;;;;;;;6.93;3.17;;;;;;;25.35;49.13;99415.75;5010432;28;20028;-95
2022/06/01 08:42:40;;;;;;;10.75;4.20;;;;;;;25.63;49.29;99446.91;5028534;28;20048;-93
2022/06/01 08:45:06;;;;;;;12.85;4.47;;;;;;;25.57;49.90;99425.19;5012457;28;20082;-94
2022/06/01 08:50:31;;;;;;;9.60;4.22;;;;;;;25.85;49.44;99424.03;5035043;28;20037;-96
2022/06/01 08:52:59;;;;;;;7.07;3.67;;;;;;;26.00;48.11;99434.19;5029684;28;20029;-93
2022/06/01 08:55:28;;;;;;;7.70;3.35;;;;;;;25.99;49.04;99429.81;5018056;28;20028;-94
2022/06/01 08:58:39;;;;;;;6.10;3.35;;;;;;;26.10;48.38;99427.22;5019740;28;20055;-95
2022/06/01 09:01:59;;;;;;;12.68;3.90;;;;;;;25.88;48.99;99439.06;5031153;28;20032;-96
2022/06/01 09:04:47;;;;;;;12.32;3.95;;;;;;;26.04;49.16;99430.66;5052945;28;20069;-96
2022/06/01 09:07:44;;;;;;;8.00;3.63;;;;;;;26.17;48.67;99427.34;5035361;28;20029;-94
2022/06/01 09:10:35;;;;;;;11.48;5.82;;;;;;;26.32;48.59;99419.25;5043259;28;20017;-93
2022/06/01 09:13:27;;;;;;;7.38;4.53;;;;;;;26.28;47.72;99401.84;5048246;28;20041;-95
2022/06/01 09:16:02;;;;;;;6.28;3.90;;;;;;;26.55;47.71;99435.72;5020578;28;20041;-90
2022/06/01 09:18:39;;;;;;;5.88;3.35;;;;;;;26.31;46.21;99415.66;5028699;28;20025;-91
2022/06/01 09:24:24;;;;;;;;;;;;;;;;;;;;;
2022/06/01 09:29:32;;;;;;;12.23;7.03;;;;;;;26.35;46.47;99412.97;5107594;22;20063;-94
2022/06/01 09:32:21;;;;;;;6.38;3.78;;;;;;;26.45;46.84;99409.56;5040405;28;20028;-96
2022/06/01 09:34:47;;;;;;;13.65;5.55;;;;;;;26.39;47.37;99398.03;5021929;28;20045;-92
2022/06/01 09:37:20;;;;;;;6.65;4.00;;;;;;;26.57;46.00;99403.81;5017716;28;20112;-89
2022/06/01 09:39:56;;;;;;;10.18;4.55;;;;;;;26.62;46.43;99402.69;5005123;28;20057;-93
2022/06/01 09:42:35;;;;;;;10.77;3.80;;;;;;;26.73;46.27;99400.06;5016179;28;20042;-90
2022/06/01 09:45:28;;;;;;;7.00;3.75;;;;;;;26.93;45.44;99397.91;5001097;28;20033;-92
2022/06/01 09:48:08;;;;;;;6.07;3.53;;;;;;;26.94;44.75;99388.47;4999846;28;20514;-91
2022/06/01 09:50:36;;;;;;;10.70;3.95;;;;;;;26.94;44.76;99388.47;4974991;28;20061;-96
2022/06/01 09:53:11;;;;;;;11.32;4.13;;;;;;;27.17;44.57;99402.91;5017093;28;20606;-93
2022/06/01 09:55:55;;;;;;;5.50;3.42;;;;;;;27.32;44.32;99411.38;5005520;28;20040;-94
2022/06/01 10:06:53;;;;;;;10.38;4.15;;;;;;;27.53;42.04;99383.91;5027423;28;20040;-93
2022/06/01 10:09:42;;;;;;;9.45;3.50;;;;;;;27.57;42.30;99379.19;5020134;28;20075;-93
2022/06/01 10:12:38;;;;;;;7.63;4.15;;;;;;;27.59;42.31;99373.28;5028173;28;20025;-96
2022/06/01 10:15:09;;;;;;;9.80;4.38;;;;;;;27.75;43.20;99373.00;5029444;28;20096;-95
2022/06/01 10:21:20;;;;;;;6.78;3.60;;;;;;;27.77;44.25;99360.38;4917943;28;20067;-94
2022/06/01 10:24:36;;;;;;;9.32;4.90;;;;;;;28.02;44.90;99390.22;5010822;28;20036;-96
2022/06/01 10:27:25;;;;;;;14.95;5.80;;;;;;;27.85;45.39;99358.47;5022393;28;20052;-93
2022/06/01 10:30:15;;;;;;;6.47;3.00;;;;;;;27.90;45.13;99366.41;5012368;28;20106;-91
2022/06/01 10:32:42;;;;;;;7.55;3.42;;;;;;;28.01;44.45;99386.63;5020587;28;20025;-94
2022/06/01 10:35:32;;;;;;;6.10;4.07;;;;;;;28.13;44.59;99384.75;5040622;28;20029;-94
2022/06/01 10:41:10;;;;;;;4.47;3.10;;;;;;;27.78;44.63;99370.25;5045164;28;20124;-91
2022/06/01 10:44:02;;;;;;;5.82;3.00;;;;;;;27.90;44.07;99382.22;5041326;28;20049;-95
2022/06/01 10:46:49;;;;;;;5.38;2.85;;;;;;;27.98;44.29;99372.78;5045430;28;20025;-95
2022/06/01 10:50:03;;;;;;;4.55;2.60;;;;;;;27.95;43.92;99373.56;5022947;28;20048;-96
2022/06/01 10:53:19;;;;;;;7.80;3.00;;;;;;;27.61;43.67;99346.81;5001326;28;20080;-92
2022/06/01 10:55:45;;;;;;;5.28;2.90;;;;;;;27.64;43.56;99358.28;4976202;28;20041;-91
2022/06/01 10:58:21;;;;;;;10.20;2.70;;;;;;;27.55;44.25;99344.81;4973998;28;20030;-92
2022/06/01 11:01:18;;;;;;;6.13;2.67;;;;;;;27.63;43.59;99365.03;5013869;28;20164;-92
2022/06/01 11:04:29;;;;;;;5.47;2.58;;;;;;;27.61;43.33;99371.72;4999860;28;20038;-94
2022/06/01 11:07:22;;;;;;;3.90;2.70;;;;;;;27.73;43.39;99380.91;5003323;28;20034;-91
2022/06/01 11:10:21;;;;;;;5.68;2.50;;;;;;;27.74;42.60;99369.44;5012492;28;20030;-91
2022/06/01 11:12:55;;;;;;;9.85;3.22;;;;;;;27.78;43.08;99367.47;4999100;28;20053;-91
2022/06/01 11:15:30;;;;;;;4.97;2.75;;;;;;;27.84;42.11;99376.22;5011766;28;20484;-90
